createdAt,value
2023-02-05T00:02:02.275Z,4.71
2023-02-05T00:05:05.436Z,4.71
2023-02-05T00:08:08.127Z,4.75
2023-02-05T00:11:10.814Z,4.73
2023-02-05T00:14:13.710Z,4.79
2023-02-05T00:17:17.685Z,4.78
2023-02-05T00:20:20.608Z,4.74
2023-02-05T00:23:23.172Z,4.76
2023-02-05T00:26:25.781Z,4.75
2023-02-05T00:29:28.517Z,4.75
2023-02-05T00:32:32.782Z,4.61
2023-02-05T00:35:35.719Z,4.63
2023-02-05T00:38:38.864Z,4.78
2023-02-05T00:41:41.695Z,4.81
2023-02-05T00:44:44.299Z,4.78
2023-02-05T00:47:48.688Z,4.71
2023-02-05T00:50:52.014Z,4.60
2023-02-05T00:53:54.809Z,4.60
2023-02-05T00:56:57.480Z,4.57
2023-02-05T01:00:00.146Z,4.63
2023-02-05T01:03:04.297Z,4.66
2023-02-05T01:06:07.533Z,4.67
2023-02-05T01:09:10.167Z,4.69
2023-02-05T01:12:14.179Z,4.69
2023-02-05T01:15:16.968Z,4.72
2023-02-05T01:18:20.952Z,4.62
2023-02-05T01:21:24.827Z,4.54
2023-02-05T01:24:27.342Z,4.63
2023-02-05T01:27:30.062Z,4.70
2023-02-05T01:30:32.742Z,4.72
2023-02-05T01:33:36.798Z,4.70
2023-02-05T01:36:39.518Z,4.69
2023-02-05T01:39:42.092Z,4.73
2023-02-05T01:42:44.841Z,4.72
2023-02-05T01:46:07.318Z,4.69
2023-02-05T01:49:14.747Z,4.58
2023-02-05T01:52:18.005Z,4.55
2023-02-05T01:55:21.276Z,4.45
2023-02-05T01:58:25.726Z,4.44
2023-02-05T02:01:29.113Z,4.51
2023-02-05T02:04:37.574Z,4.49
2023-02-05T02:07:40.279Z,4.44
2023-02-05T02:10:44.898Z,4.43
2023-02-05T02:13:48.828Z,4.40
2023-02-05T02:16:51.233Z,4.41
2023-02-05T02:20:00.352Z,4.37
2023-02-05T02:23:10.127Z,4.29
2023-02-05T02:26:28.490Z,4.27
2023-02-05T02:29:37.316Z,4.29
2023-02-05T02:32:41.777Z,4.29
2023-02-05T02:35:48.984Z,4.28
2023-02-05T02:38:55.013Z,4.31
2023-02-05T02:42:03.511Z,4.35
2023-02-05T02:45:09.922Z,4.27
2023-02-05T02:48:13.692Z,4.39
2023-02-05T02:51:17.477Z,4.45
2023-02-05T02:54:22.311Z,4.43
2023-02-05T02:57:27.017Z,4.42
2023-02-05T03:00:32.026Z,4.39
2023-02-05T03:03:37.678Z,4.33
2023-02-05T03:06:41.323Z,4.22
2023-02-05T03:09:48.171Z,4.23
2023-02-05T03:12:50.868Z,4.23
2023-02-05T03:15:55.088Z,4.30
2023-02-05T03:18:58.364Z,4.32
2023-02-05T03:22:04.510Z,4.32
2023-02-05T03:25:07.845Z,4.33
2023-02-05T03:28:10.717Z,4.33
2023-02-05T03:31:18.085Z,4.35
2023-02-05T03:34:28.234Z,4.33
2023-02-05T03:37:38.859Z,4.34
2023-02-05T03:40:46.687Z,4.34
2023-02-05T03:43:54.667Z,4.22
2023-02-05T03:47:02.616Z,4.02
2023-02-05T03:50:13.698Z,3.69
2023-02-05T03:53:22.667Z,3.35
2023-02-05T03:56:28.569Z,3.17
2023-02-05T03:59:31.530Z,3.04
2023-02-05T04:02:36.687Z,3.10
2023-02-05T04:05:39.420Z,3.08
2023-02-05T04:08:44.209Z,3.06
2023-02-05T04:11:46.929Z,2.98
2023-02-05T04:14:49.502Z,2.86
2023-02-05T04:17:53.519Z,2.71
2023-02-05T04:20:56.793Z,2.62
2023-02-05T04:23:59.528Z,2.52
2023-02-05T04:27:02.605Z,2.45
2023-02-05T04:30:06.837Z,2.34
2023-02-05T04:33:11.357Z,2.34
2023-02-05T04:36:15.294Z,2.33
2023-02-05T04:39:18.066Z,2.29
2023-02-05T04:42:20.676Z,2.33
2023-02-05T04:45:23.956Z,2.24
2023-02-05T04:48:27.866Z,2.21
2023-02-05T04:51:30.386Z,2.12
2023-02-05T04:54:33.295Z,2.02
2023-02-05T04:57:36.068Z,1.95
2023-02-05T05:00:38.748Z,1.96
2023-02-05T05:03:43.565Z,2.05
2023-02-05T05:06:46.169Z,2.32
2023-02-05T05:09:49.044Z,2.49
2023-02-05T05:12:53.197Z,2.64
2023-02-05T05:15:56.330Z,2.81
2023-02-05T05:19:00.397Z,2.98
2023-02-05T05:22:03.743Z,2.99
2023-02-05T05:25:06.832Z,3.13
2023-02-05T05:28:09.540Z,3.25
2023-02-05T05:31:16.535Z,3.34
2023-02-05T05:34:20.889Z,3.40
2023-02-05T05:37:23.463Z,3.51
2023-02-05T05:40:43.643Z,3.56
2023-02-05T05:43:49.521Z,3.61
2023-02-05T05:46:52.529Z,3.62
2023-02-05T05:49:56.531Z,3.63
2023-02-05T05:52:59.222Z,3.56
2023-02-05T05:56:01.968Z,3.59
2023-02-05T05:59:04.874Z,3.64
2023-02-05T06:02:08.046Z,3.65
2023-02-05T06:05:12.572Z,3.57
2023-02-05T06:08:16.315Z,3.61
2023-02-05T06:11:19.146Z,3.64
2023-02-05T06:14:21.756Z,3.60
2023-02-05T06:17:24.648Z,3.53
2023-02-05T06:20:28.731Z,3.61
2023-02-05T06:23:31.411Z,3.60
2023-02-05T06:26:34.021Z,3.66
2023-02-05T06:29:36.742Z,3.70
2023-02-05T06:32:39.494Z,3.73
2023-02-05T06:35:43.483Z,3.74
2023-02-05T06:38:46.519Z,3.78
2023-02-05T06:41:49.273Z,3.85
2023-02-05T06:44:51.945Z,3.93
2023-02-05T06:47:56.054Z,4.03
2023-02-05T06:51:00.045Z,4.11
2023-02-05T06:54:02.817Z,4.21
2023-02-05T06:57:05.632Z,4.25
2023-02-05T07:00:09.702Z,4.17
2023-02-05T07:03:12.375Z,4.21
2023-02-05T07:06:16.350Z,4.28
2023-02-05T07:09:19.196Z,4.34
2023-02-05T07:12:22.596Z,4.32
2023-02-05T07:15:25.283Z,4.42
2023-02-05T07:18:27.852Z,4.43
2023-02-05T07:21:32.886Z,4.42
2023-02-05T07:24:35.443Z,4.45
2023-02-05T07:27:38.052Z,4.46
2023-02-05T07:30:41.070Z,4.52
2023-02-05T07:33:44.216Z,4.51
2023-02-05T07:36:50.997Z,4.33
2023-02-05T07:39:53.811Z,4.34
2023-02-05T07:42:56.465Z,4.46
2023-02-05T07:45:59.590Z,4.58
2023-02-05T07:49:02.747Z,4.59
2023-02-05T07:52:08.063Z,4.65
2023-02-05T07:55:10.837Z,4.78
2023-02-05T07:58:14.027Z,4.79
2023-02-05T08:01:16.800Z,4.67
2023-02-05T08:04:20.151Z,4.77
2023-02-05T08:07:24.303Z,4.72
2023-02-05T08:10:27.211Z,4.87
2023-02-05T08:13:38.059Z,5.09
2023-02-05T08:16:40.881Z,5.05
2023-02-05T08:19:43.539Z,5.10
2023-02-05T08:22:47.862Z,4.80
2023-02-05T08:25:54.500Z,4.68
2023-02-05T08:28:57.256Z,4.83
2023-02-05T08:32:00.112Z,4.95
2023-02-05T08:35:02.992Z,5.06
2023-02-05T08:38:07.136Z,5.30
2023-02-05T08:41:13.369Z,5.45
2023-02-05T08:44:16.146Z,5.61
2023-02-05T08:47:20.446Z,5.75
2023-02-05T08:50:23.475Z,5.80
2023-02-05T08:53:27.454Z,5.97
2023-02-05T08:56:30.072Z,6.10
2023-02-05T08:59:32.719Z,6.23
2023-02-05T09:02:35.550Z,6.32
2023-02-05T09:05:39.745Z,6.22
2023-02-05T09:08:43.999Z,5.99
2023-02-05T09:11:47.416Z,6.26
2023-02-05T09:14:50.047Z,6.21
2023-02-05T09:17:52.780Z,6.30
2023-02-05T09:20:55.464Z,6.12
2023-02-05T09:23:59.450Z,6.14
2023-02-05T09:27:02.213Z,6.00
2023-02-05T09:30:05.594Z,5.90
2023-02-05T09:33:08.728Z,5.81
2023-02-05T09:36:16.203Z,5.61
2023-02-05T09:39:44.304Z,5.59
2023-02-05T09:42:46.003Z,5.68
2023-02-05T09:45:56.270Z,5.75
2023-02-05T09:49:03.578Z,5.67
2023-02-05T09:52:13.034Z,5.48
2023-02-05T09:55:21.813Z,5.47
2023-02-05T09:58:25.853Z,5.29
2023-02-05T10:01:37.802Z,5.34
2023-02-05T10:04:40.575Z,5.28
2023-02-05T10:07:49.286Z,5.14
2023-02-05T10:10:55.018Z,5.07
2023-02-05T10:14:03.159Z,5.21
2023-02-05T10:17:14.296Z,5.36
2023-02-05T10:20:25.125Z,5.55
2023-02-05T10:23:51.879Z,5.77
2023-02-05T10:27:02.239Z,5.79
2023-02-05T10:30:11.170Z,5.86
2023-02-05T10:33:18.737Z,5.45
2023-02-05T10:36:22.897Z,5.80
2023-02-05T10:39:27.610Z,5.96
2023-02-05T10:42:34.508Z,6.01
2023-02-05T10:45:37.332Z,6.18
2023-02-05T10:48:43.127Z,6.44
2023-02-05T10:51:46.887Z,6.33
2023-02-05T10:54:49.457Z,6.33
2023-02-05T10:57:53.541Z,6.45
2023-02-05T11:00:56.406Z,6.61
2023-02-05T11:04:02.096Z,6.65
2023-02-05T11:07:06.359Z,6.54
2023-02-05T11:10:17.158Z,6.55
2023-02-05T11:13:22.979Z,6.50
2023-02-05T11:16:36.934Z,6.56
2023-02-05T11:19:39.484Z,6.65
2023-02-05T11:22:42.641Z,6.64
2023-02-05T11:25:53.953Z,6.88
2023-02-05T11:28:58.439Z,7.03
2023-02-05T11:32:01.162Z,7.18
2023-02-05T11:35:19.311Z,7.25
2023-02-05T11:38:29.896Z,7.37
2023-02-05T11:41:48.048Z,7.23
2023-02-05T11:44:53.673Z,7.52
2023-02-05T11:47:56.684Z,7.82
2023-02-05T11:50:59.409Z,8.01
2023-02-05T11:54:03.868Z,7.62
2023-02-05T11:57:09.157Z,7.63
2023-02-05T12:00:23.156Z,7.64
2023-02-05T12:03:29.988Z,7.46
2023-02-05T12:06:37.509Z,7.42
2023-02-05T12:09:40.146Z,7.27
2023-02-05T12:12:49.113Z,6.96
2023-02-05T12:16:00.870Z,6.95
2023-02-05T12:19:11.287Z,7.08
2023-02-05T12:22:21.983Z,7.21
2023-02-05T12:25:26.968Z,7.17
2023-02-05T12:28:36.356Z,6.63
2023-02-05T12:31:49.450Z,6.42
2023-02-05T12:35:03.866Z,6.53
2023-02-05T12:38:21.244Z,6.28
2023-02-05T12:41:33.057Z,6.10
2023-02-05T12:44:45.265Z,5.81
2023-02-05T12:48:01.228Z,5.63
2023-02-05T12:51:22.380Z,5.78
2023-02-05T12:54:39.169Z,6.05
2023-02-05T12:57:45.154Z,6.07
2023-02-05T13:00:51.860Z,6.14
2023-02-05T13:04:00.260Z,6.21
2023-02-05T13:07:11.802Z,6.29
2023-02-05T13:10:18.509Z,6.41
2023-02-05T13:13:26.910Z,6.17
2023-02-05T13:16:34.781Z,6.20
2023-02-05T13:19:41.351Z,6.28
2023-02-05T13:23:07.788Z,6.33
2023-02-05T13:26:30.261Z,6.32
2023-02-05T13:29:46.401Z,6.35
2023-02-05T13:32:51.860Z,6.30
2023-02-05T13:36:01.999Z,6.36
2023-02-05T13:39:18.080Z,6.38
2023-02-05T13:42:39.496Z,6.03
2023-02-05T13:46:33.450Z,5.79
2023-02-05T13:49:59.225Z,5.76
2023-02-05T13:53:15.591Z,5.49
2023-02-05T13:56:33.387Z,5.35
2023-02-05T13:59:38.094Z,5.25
2023-02-05T14:02:43.249Z,5.32
2023-02-05T14:05:45.919Z,4.76
2023-02-05T14:08:51.755Z,5.14
2023-02-05T14:11:56.914Z,4.80
2023-02-05T14:15:25.750Z,5.04
2023-02-05T14:18:49.530Z,5.15
2023-02-05T14:22:07.654Z,5.01
2023-02-05T14:25:51.687Z,5.01
2023-02-05T14:29:02.195Z,4.86
2023-02-05T14:32:04.845Z,4.67
2023-02-05T14:35:29.189Z,4.70
2023-02-05T14:38:32.637Z,4.38
2023-02-05T14:41:50.625Z,4.49
2023-02-05T14:44:57.381Z,4.58
2023-02-05T14:48:00.216Z,4.52
2023-02-05T14:51:08.424Z,4.34
2023-02-05T14:54:16.581Z,4.56
2023-02-05T14:57:22.369Z,4.51
2023-02-05T15:00:35.177Z,4.72
2023-02-05T15:03:39.555Z,4.92
2023-02-05T15:06:43.140Z,5.00
2023-02-05T15:09:49.271Z,4.63
2023-02-05T15:13:03.343Z,4.59
2023-02-05T15:16:18.483Z,4.51
2023-02-05T15:19:21.223Z,4.64
2023-02-05T15:22:27.535Z,4.55
2023-02-05T15:25:35.201Z,4.81
2023-02-05T15:28:41.446Z,4.80
2023-02-05T15:31:47.661Z,4.71
2023-02-05T15:34:52.543Z,4.60
2023-02-05T15:37:57.089Z,4.72
2023-02-05T15:41:00.166Z,4.69
2023-02-05T15:44:03.895Z,4.77
2023-02-05T15:47:15.289Z,4.77
2023-02-05T15:50:18.408Z,4.76
2023-02-05T15:53:34.192Z,4.71
2023-02-05T15:56:39.397Z,4.72
2023-02-05T15:59:42.185Z,4.66
2023-02-05T16:02:54.449Z,4.70
2023-02-05T16:05:57.237Z,4.80
2023-02-05T16:08:59.964Z,4.73
2023-02-05T16:12:12.608Z,4.58
2023-02-05T16:15:15.772Z,4.56
2023-02-05T16:18:28.837Z,4.69
2023-02-05T16:21:34.174Z,4.69
2023-02-05T16:24:39.587Z,4.73
2023-02-05T16:27:45.648Z,4.70
2023-02-05T16:30:49.078Z,4.70
2023-02-05T16:33:55.211Z,4.62
2023-02-05T16:37:01.903Z,4.65
2023-02-05T16:40:09.780Z,4.59
2023-02-05T16:43:28.443Z,4.74
2023-02-05T16:46:31.856Z,4.74
2023-02-05T16:49:36.029Z,4.75
2023-02-05T16:52:38.922Z,4.82
2023-02-05T16:55:42.521Z,4.74
2023-02-05T16:58:47.289Z,4.78
2023-02-05T17:01:50.668Z,4.91
2023-02-05T17:04:56.858Z,4.98
2023-02-05T17:08:02.443Z,4.92
2023-02-05T17:11:07.267Z,4.83
2023-02-05T17:14:22.287Z,4.87
2023-02-05T17:17:26.114Z,4.71
2023-02-05T17:20:29.905Z,4.97
2023-02-05T17:23:32.601Z,4.95
2023-02-05T17:26:38.635Z,5.03
2023-02-05T17:29:41.406Z,5.00
2023-02-05T17:32:46.979Z,5.09
2023-02-05T17:35:51.338Z,4.94
2023-02-05T17:38:54.252Z,4.95
2023-02-05T17:42:07.915Z,5.03
2023-02-05T17:45:16.173Z,5.09
2023-02-05T17:48:20.204Z,5.10
2023-02-05T17:51:25.355Z,5.03
2023-02-05T17:54:28.070Z,4.95
2023-02-05T17:57:34.240Z,5.09
2023-02-05T18:00:37.060Z,5.02
2023-02-05T18:03:43.042Z,5.08
2023-02-05T18:06:49.447Z,5.09
2023-02-05T18:09:52.180Z,5.10
2023-02-05T18:12:55.712Z,5.04
2023-02-05T18:16:03.223Z,5.07
2023-02-05T18:19:06.493Z,4.99
2023-02-05T18:22:10.370Z,4.90
2023-02-05T18:25:12.944Z,4.71
2023-02-05T18:28:15.664Z,4.68
2023-02-05T18:31:18.831Z,4.69
2023-02-05T18:34:21.545Z,4.57
2023-02-05T18:37:26.617Z,4.67
2023-02-05T18:40:29.457Z,4.68
2023-02-05T18:43:32.037Z,4.52
2023-02-05T18:46:35.037Z,4.51
2023-02-05T18:49:37.623Z,4.63
2023-02-05T18:52:41.526Z,4.63
2023-02-05T18:55:44.063Z,4.62
2023-02-05T18:58:52.404Z,4.69
2023-02-05T19:01:55.121Z,4.65
2023-02-05T19:04:57.846Z,4.63
2023-02-05T19:08:04.643Z,4.62
2023-02-05T19:11:10.016Z,4.49
2023-02-05T19:14:14.545Z,4.54
2023-02-05T19:17:17.922Z,4.41
2023-02-05T19:20:20.818Z,4.58
2023-02-05T19:23:24.972Z,4.51
2023-02-05T19:26:29.542Z,4.58
2023-02-05T19:29:37.960Z,4.58
2023-02-05T19:32:40.809Z,4.51
2023-02-05T19:35:43.532Z,4.44
2023-02-05T19:38:47.842Z,4.30
2023-02-05T19:41:51.993Z,4.39
2023-02-05T19:44:54.735Z,4.34
2023-02-05T19:47:57.406Z,4.30
2023-02-05T19:51:04.812Z,4.32
2023-02-05T19:54:08.839Z,4.27
2023-02-05T19:57:11.424Z,4.36
2023-02-05T20:00:15.248Z,4.36
2023-02-05T20:03:18.049Z,4.36
2023-02-05T20:06:24.429Z,4.44
2023-02-05T20:09:29.029Z,4.38
2023-02-05T20:12:31.653Z,4.42
2023-02-05T20:15:36.903Z,4.41
2023-02-05T20:18:40.008Z,4.50
2023-02-05T20:21:42.829Z,4.47
2023-02-05T20:24:47.380Z,4.43
2023-02-05T20:27:50.295Z,4.42
2023-02-05T20:31:10.742Z,4.40
2023-02-05T20:34:18.364Z,4.32
2023-02-05T20:37:21.321Z,4.40
2023-02-05T20:40:25.709Z,4.27
2023-02-05T20:43:28.324Z,4.40
2023-02-05T20:46:31.397Z,4.35
2023-02-05T20:49:35.861Z,4.36
2023-02-05T20:52:38.490Z,4.44
2023-02-05T20:55:42.448Z,4.44
2023-02-05T20:58:45.421Z,4.52
2023-02-05T21:01:48.419Z,4.33
2023-02-05T21:04:52.694Z,4.29
2023-02-05T21:07:55.520Z,4.22
2023-02-05T21:10:59.638Z,4.20
2023-02-05T21:14:03.415Z,4.21
2023-02-05T21:17:09.223Z,4.22
2023-02-05T21:20:11.944Z,4.10
2023-02-05T21:23:14.557Z,3.92
2023-02-05T21:26:23.370Z,4.17
2023-02-05T21:29:25.967Z,4.16
2023-02-05T21:32:30.646Z,4.13
2023-02-05T21:35:33.296Z,4.16
2023-02-05T21:38:36.717Z,4.08
2023-02-05T21:41:40.780Z,4.03
2023-02-05T21:44:44.351Z,4.03
2023-02-05T21:47:46.869Z,4.02
2023-02-05T21:50:49.510Z,4.10
2023-02-05T21:53:55.228Z,4.16
2023-02-05T21:56:59.212Z,4.04
2023-02-05T22:00:03.291Z,4.08
2023-02-05T22:03:05.953Z,4.08
2023-02-05T22:06:09.406Z,4.15
2023-02-05T22:09:13.785Z,3.97
2023-02-05T22:12:17.930Z,4.11
2023-02-05T22:15:20.589Z,3.87
2023-02-05T22:18:23.145Z,3.94
2023-02-05T22:21:28.080Z,4.03
2023-02-05T22:24:30.916Z,4.03
2023-02-05T22:27:35.075Z,4.05
2023-02-05T22:30:37.869Z,4.09
2023-02-05T22:33:42.216Z,4.13
2023-02-05T22:36:45.081Z,4.08
2023-02-05T22:39:48.846Z,4.09
2023-02-05T22:42:52.983Z,4.00
2023-02-05T22:45:55.664Z,4.04
2023-02-05T22:49:00.236Z,4.15
2023-02-05T22:52:03.168Z,4.18
2023-02-05T22:55:06.662Z,4.08
2023-02-05T22:58:11.201Z,4.20
2023-02-05T23:01:15.876Z,4.21
2023-02-05T23:04:18.611Z,4.29
2023-02-05T23:07:21.276Z,4.33
2023-02-05T23:10:24.460Z,4.20
2023-02-05T23:13:28.376Z,4.19
2023-02-05T23:16:31.670Z,4.23
2023-02-05T23:19:34.663Z,4.29
2023-02-05T23:22:37.519Z,4.23
2023-02-05T23:25:40.248Z,4.07
2023-02-05T23:28:45.038Z,3.99
2023-02-05T23:31:47.945Z,3.90
2023-02-05T23:34:50.635Z,3.82
2023-02-05T23:37:53.402Z,3.99
2023-02-05T23:40:57.017Z,4.02
2023-02-05T23:44:00.978Z,3.90
2023-02-05T23:47:03.621Z,4.00
2023-02-05T23:50:07.040Z,3.91
2023-02-05T23:53:09.925Z,3.93
2023-02-05T23:56:12.711Z,3.95
2023-02-05T23:59:17.107Z,3.91
